Panacea — ZGDY9 — position and weather

sailwx.info

Track history (hours):
 
Tides and Currents Weather Stations Pressure Air Temp Water Temp Dewpoint Dewpoint Depression Visibility Wind Speed Wind Dir Waves Ship Positions

Panacea

Last reported at 2018-Jan-07 21:20 UTC. Time now 2018-Feb-19 12:11 UTC.
Position N 16°60' W 062°39'.
Warning: this ship's position is 42 days out of date.

Length 28 m; draft 4.2 m.

Type: Ship. MMSI: 319066600.

Date/timePositionNaut miles runAvg speedWind from/ knotsBaromVisibWave heightAir tempDewpointWater temp
2018-Jan-07 21:20N 16°60' W 062°39'13 7.8
2018-Jan-07 19:40N 17°03' W 062°26'4 8.4
2018-Jan-07 19:14N 17°00' W 062°23'3 8.3
2018-Jan-07 18:54N 16°59' W 062°21'3 8.3
2018-Jan-07 18:30N 16°57' W 062°19'4 7.9
2018-Jan-07 18:00N 16°58' W 062°15'5 9.3
2018-Jan-07 17:31N 16°60' W 062°10'510.4
2018-Jan-07 17:00N 16°60' W 062°05'510.0
2018-Jan-07 16:30N 16°60' W 061°60'510.3
2018-Jan-07 16:00N 16°60' W 061°54'510.0
2018-Jan-07 15:31N 16°60' W 061°49'3 5.2
2018-Jan-07 15:00N 17°01' W 061°47'0 1.0
2018-Jan-07 14:30N 17°01' W 061°47'0 0.0
2018-Jan-07 14:00N 17°01' W 061°47'0 0.0
2018-Jan-07 13:30N 17°01' W 061°47'0 0.0
2018-Jan-07 13:00N 17°01' W 061°47'0 0.0
2018-Jan-07 12:30N 17°01' W 061°47'0 0.0
2018-Jan-07 12:00N 17°01' W 061°47'0 0.0
2018-Jan-07 11:30N 17°01' W 061°47'0 0.0
2018-Jan-07 10:58N 17°01' W 061°47'0 0.0
2018-Jan-07 10:28N 17°01' W 061°47'0 0.0
2018-Jan-07 09:58N 17°01' W 061°47'0 0.0
2018-Jan-07 09:28N 17°01' W 061°47'0 0.0
2018-Jan-07 08:58N 17°01' W 061°47'0 0.0
2018-Jan-07 08:28N 17°01' W 061°47'0 0.0
2018-Jan-07 07:58N 17°01' W 061°47'0 0.0
2018-Jan-07 07:28N 17°01' W 061°47'0 0.0
2018-Jan-07 06:58N 17°01' W 061°47'0 0.0
2018-Jan-07 06:28N 17°01' W 061°47'0 0.0
2018-Jan-07 05:58N 17°01' W 061°47'0 0.0
2018-Jan-07 05:28N 17°01' W 061°47'0 0.0
2018-Jan-07 04:58N 17°01' W 061°47'0 0.0
2018-Jan-07 04:28N 17°01' W 061°47'0 0.0
2018-Jan-07 03:58N 17°01' W 061°47'0 0.0
2018-Jan-07 03:28N 17°01' W 061°47'0 0.0
2018-Jan-07 02:58N 17°01' W 061°47'0 0.0
2018-Jan-07 02:28N 17°01' W 061°47'0 0.0
2018-Jan-07 01:58N 17°01' W 061°47'0 0.0
2018-Jan-07 01:28N 17°01' W 061°47'0 0.0
2018-Jan-07 00:28N 17°01' W 061°47'0 0.0
2018-Jan-06 23:58N 17°01' W 061°47'0 0.0
2018-Jan-06 23:28N 17°01' W 061°47'0 0.0
2018-Jan-06 22:58N 17°01' W 061°47'0 0.0
2018-Jan-06 22:28N 17°01' W 061°47'0 0.0
2018-Jan-06 21:58N 17°01' W 061°47'0 0.0
2018-Jan-06 21:28N 17°01' W 061°47'0 0.0
2018-Jan-06 20:58N 17°01' W 061°47'0 0.0
2018-Jan-06 20:28N 17°01' W 061°47'0 0.0
2018-Jan-06 19:58N 17°01' W 061°47'0 0.0
2018-Jan-06 19:28N 17°01' W 061°47'0 0.0
2018-Jan-06 18:58N 17°01' W 061°47'0 0.0
2018-Jan-06 18:28N 17°01' W 061°47'0 0.0
2018-Jan-06 17:58N 17°01' W 061°47'0 0.0
2018-Jan-06 17:28N 17°01' W 061°47'0 0.0
2018-Jan-06 16:58N 17°01' W 061°47'0 0.0
2018-Jan-06 16:28N 17°01' W 061°47'0 0.0
2018-Jan-06 15:58N 17°01' W 061°47'0 0.0
2018-Jan-06 15:28N 17°01' W 061°47'0 0.0
2018-Jan-06 14:55N 17°01' W 061°47'0 0.0
2018-Jan-06 14:28N 17°01' W 061°47'0 0.0
2018-Jan-06 13:58N 17°01' W 061°47'0 0.0
2018-Jan-06 13:28N 17°01' W 061°47'0 0.0
2018-Jan-06 12:58N 17°01' W 061°47'0 0.0
2018-Jan-06 12:28N 17°01' W 061°47'0 0.0
2018-Jan-06 11:58N 17°01' W 061°47'0 0.0
2018-Jan-06 11:28N 17°01' W 061°47'0 0.0
2018-Jan-06 10:58N 17°01' W 061°47'0 0.0
2018-Jan-06 10:25N 17°01' W 061°47'0 0.0
2018-Jan-06 09:58N 17°01' W 061°47'0 0.0
2018-Jan-06 09:28N 17°01' W 061°47'0 0.0
2018-Jan-06 08:58N 17°01' W 061°47'0 0.0
2018-Jan-06 08:28N 17°01' W 061°47'0 0.0
2018-Jan-06 07:58N 17°01' W 061°47'0 0.0
2018-Jan-06 07:28N 17°01' W 061°47'0 0.0
2018-Jan-06 06:58N 17°01' W 061°47'0 0.0
2018-Jan-06 06:28N 17°01' W 061°47'0 0.0
2018-Jan-06 05:58N 17°01' W 061°47'0 0.0
2018-Jan-06 05:28N 17°01' W 061°47'0 0.0
2018-Jan-06 04:58N 17°01' W 061°47'0 0.0
2018-Jan-06 04:28N 17°01' W 061°47'0 0.0
2018-Jan-06 03:58N 17°01' W 061°47'0 0.0
2018-Jan-06 03:28N 17°01' W 061°47'0 0.0
2018-Jan-06 02:58N 17°01' W 061°47'0 0.0
2018-Jan-06 02:28N 17°01' W 061°47'0 0.0
2018-Jan-06 01:58N 17°01' W 061°47'0 0.0
2018-Jan-06 01:28N 17°01' W 061°47'0 0.0
2018-Jan-06 00:58N 17°01' W 061°47'0 0.0
2018-Jan-06 00:28N 17°01' W 061°47'0 0.0
2018-Jan-05 23:58N 17°01' W 061°47'0 0.0
2018-Jan-05 23:28N 17°01' W 061°47'0 0.0
2018-Jan-05 22:58N 17°01' W 061°47'0 0.0
2018-Jan-05 22:28N 17°01' W 061°47'0 0.0
2018-Jan-05 21:58N 17°01' W 061°47'0 0.0
2018-Jan-05 21:28N 17°01' W 061°47'0 0.0
2018-Jan-05 20:58N 17°01' W 061°47'0 0.0
2018-Jan-05 20:28N 17°01' W 061°47'0 0.0
2018-Jan-05 19:58N 17°01' W 061°47'0 0.0
2018-Jan-05 19:28N 17°01' W 061°47'0 0.0
2018-Jan-05 18:58N 17°01' W 061°47'0 0.0
2018-Jan-05 18:28N 17°01' W 061°47'0 0.0
2018-Jan-05 17:55N 17°01' W 061°47'0 0.0
2018-Jan-05 17:25N 17°01' W 061°47'0 0.0
2018-Jan-05 16:58N 17°01' W 061°47'0 0.0
2018-Jan-05 16:28N 17°01' W 061°47'0 0.0
2018-Jan-05 15:58N 17°01' W 061°47'0 0.0
2018-Jan-05 15:28N 17°01' W 061°47'0 0.0
2018-Jan-05 14:58N 17°01' W 061°47'0 0.0
2018-Jan-05 14:28N 17°01' W 061°47'0 0.0
2018-Jan-05 13:58N 17°01' W 061°47'0 0.0
2018-Jan-05 13:28N 17°01' W 061°47'0 0.0
2018-Jan-05 12:58N 17°01' W 061°47'0 0.0
2018-Jan-05 12:28N 17°01' W 061°47'0 0.0
2018-Jan-05 11:55N 17°01' W 061°47'0 0.0
2018-Jan-05 11:28N 17°01' W 061°47'0 0.0
2018-Jan-05 10:58N 17°01' W 061°47'0 0.0
2018-Jan-05 10:28N 17°01' W 061°47'0 0.0
2018-Jan-05 09:58N 17°01' W 061°47'0 0.0
2018-Jan-05 09:28N 17°01' W 061°47'0 0.0
2018-Jan-05 08:58N 17°01' W 061°47'0 0.0
2018-Jan-05 08:28N 17°01' W 061°47'0 0.0
2018-Jan-05 07:58N 17°01' W 061°47'0 0.0
2018-Jan-05 07:28N 17°01' W 061°47'0 0.0
2018-Jan-05 06:58N 17°01' W 061°47'0 0.0
2018-Jan-05 06:28N 17°01' W 061°47'0 0.0
2018-Jan-05 05:58N 17°01' W 061°47'0 0.0
2018-Jan-05 05:28N 17°01' W 061°47'0 0.0
2018-Jan-05 04:58N 17°01' W 061°47'0 0.0
2018-Jan-05 04:28N 17°01' W 061°47'0 0.0
2018-Jan-05 03:58N 17°01' W 061°47'0 0.0
2018-Jan-05 03:28N 17°01' W 061°47'0 0.0
2018-Jan-05 02:58N 17°01' W 061°47'0 0.0
2018-Jan-05 02:28N 17°01' W 061°47'0 0.0
2018-Jan-05 01:58N 17°01' W 061°47'0 0.0
2018-Jan-05 01:28N 17°01' W 061°47'0 0.0
2018-Jan-05 00:58N 17°01' W 061°47'0 0.0
2018-Jan-05 00:28N 17°01' W 061°47'0 0.0
2018-Jan-04 23:58N 17°01' W 061°47'0 0.0
2018-Jan-04 23:28N 17°01' W 061°47'0 0.0
2018-Jan-04 22:58N 17°01' W 061°47'0 0.0
2018-Jan-04 22:28N 17°01' W 061°47'0 0.0
2018-Jan-04 21:58N 17°01' W 061°47'0 0.0
2018-Jan-04 21:28N 17°01' W 061°47'0 0.0
2018-Jan-04 20:58N 17°01' W 061°47'0 0.0
2018-Jan-04 20:28N 17°01' W 061°47'0 0.0
2018-Jan-04 19:58N 17°01' W 061°47'0 0.0
2018-Jan-04 19:28N 17°01' W 061°47'0 0.0
2018-Jan-04 18:58N 17°01' W 061°47'0 0.0
2018-Jan-04 18:28N 17°01' W 061°47'0 0.0
2018-Jan-04 17:58N 17°01' W 061°47'0 0.0
2018-Jan-04 17:28N 17°01' W 061°47'0 0.0
2018-Jan-04 16:58N 17°01' W 061°47'0 0.0
2018-Jan-04 16:28N 17°01' W 061°47'0 0.0
2018-Jan-04 15:58N 17°01' W 061°47'0 0.0
2018-Jan-04 15:28N 17°01' W 061°47'0 0.0
2018-Jan-04 14:55N 17°01' W 061°47'0 0.0
2018-Jan-04 14:28N 17°01' W 061°47'0 0.0
2018-Jan-04 13:58N 17°01' W 061°47'0 0.0
2018-Jan-04 13:28N 17°01' W 061°47'0 0.0
2018-Jan-04 12:58N 17°01' W 061°47'0 0.0
2018-Jan-04 12:28N 17°01' W 061°47'0 0.0
2018-Jan-04 11:58N 17°01' W 061°47'0 0.0
2018-Jan-04 11:28N 17°01' W 061°47'0 0.0
2018-Jan-04 10:58N 17°01' W 061°47'0 0.0
2018-Jan-04 10:28N 17°01' W 061°47'0 0.0
2018-Jan-04 09:58N 17°01' W 061°47'0 0.0
2018-Jan-04 09:28N 17°01' W 061°47'0 0.0
2018-Jan-04 08:58N 17°01' W 061°47'0 0.0
2018-Jan-04 08:28N 17°01' W 061°47'0 0.0
2018-Jan-04 07:58N 17°01' W 061°47'0 0.0
2018-Jan-04 07:28N 17°01' W 061°47'0 0.0
2018-Jan-04 06:58N 17°01' W 061°47'0 0.0
2018-Jan-04 06:28N 17°01' W 061°47'0 0.0
2018-Jan-04 05:58N 17°01' W 061°47'0 0.0
2018-Jan-04 05:28N 17°01' W 061°47'0 0.0
2018-Jan-04 04:58N 17°01' W 061°47'0 0.0
2018-Jan-04 04:28N 17°01' W 061°47'0 0.0
2018-Jan-04 03:58N 17°01' W 061°47'0 0.0
2018-Jan-04 03:28N 17°01' W 061°47'0 0.0
2018-Jan-04 02:58N 17°01' W 061°47'0 0.0
2018-Jan-04 02:28N 17°01' W 061°47'0 0.0
2018-Jan-04 01:58N 17°01' W 061°47'0 0.0
2018-Jan-04 01:28N 17°01' W 061°47'0 0.0
2018-Jan-04 00:58N 17°01' W 061°47'0 0.0
2018-Jan-04 00:28N 17°01' W 061°47'0 0.0
2018-Jan-03 23:58N 17°01' W 061°47'0 0.0
2018-Jan-03 23:28N 17°01' W 061°47'0 0.0
2018-Jan-03 22:58N 17°01' W 061°47'0 0.0
2018-Jan-03 22:28N 17°01' W 061°47'0 0.0
2018-Jan-03 21:58N 17°01' W 061°47'0 0.0
2018-Jan-03 21:28N 17°01' W 061°47'0 0.0
2018-Jan-03 20:58N 17°01' W 061°47'0 0.0
2018-Jan-03 20:28N 17°01' W 061°47'0 0.0
2018-Jan-03 19:58N 17°01' W 061°47'0 0.0
2018-Jan-03 19:28N 17°01' W 061°47'0 0.0
2018-Jan-03 18:58N 17°01' W 061°47'0 0.0
2018-Jan-03 18:28N 17°01' W 061°47'0 0.0
2018-Jan-03 17:58N 17°01' W 061°47'0 0.0
2018-Jan-03 17:28N 17°01' W 061°47'0 0.0
2018-Jan-03 16:58N 17°01' W 061°47'0 0.0
2018-Jan-03 16:28N 17°01' W 061°47'0 0.0
2018-Jan-03 15:58N 17°01' W 061°47'0 0.0
2018-Jan-03 15:28N 17°01' W 061°47'0 0.0
2018-Jan-03 14:58N 17°01' W 061°47'0 0.0
2018-Jan-03 14:28N 17°01' W 061°47'0 0.0
2018-Jan-03 13:58N 17°01' W 061°47'0 0.0
2018-Jan-03 13:28N 17°01' W 061°47'0 0.0
2018-Jan-03 12:58N 17°01' W 061°47'0 0.0
2018-Jan-03 12:28N 17°01' W 061°47'0 0.0
2018-Jan-03 11:55N 17°01' W 061°47'0 0.0
2018-Jan-03 11:28N 17°01' W 061°47'0 0.0
2018-Jan-03 10:58N 17°01' W 061°47'0 0.0
2018-Jan-03 10:28N 17°01' W 061°47'0 0.0
2018-Jan-03 09:58N 17°01' W 061°47'0 0.0
2018-Jan-03 09:28N 17°01' W 061°47'0 0.0
2018-Jan-03 08:58N 17°01' W 061°47'0 0.0
2018-Jan-03 08:28N 17°01' W 061°47'0 0.0
2018-Jan-03 07:58N 17°01' W 061°47'0 0.0
2018-Jan-03 07:28N 17°01' W 061°47'0 0.0
2018-Jan-03 06:58N 17°01' W 061°47'0 0.0
2018-Jan-03 06:28N 17°01' W 061°47'0 0.0
2018-Jan-03 05:58N 17°01' W 061°47'0 0.0
2018-Jan-03 05:28N 17°01' W 061°47'0 0.0
2018-Jan-03 04:58N 17°01' W 061°47'0 0.0
2018-Jan-03 04:28N 17°01' W 061°47'0 0.0
2018-Jan-03 03:58N 17°01' W 061°47'0 0.0
2018-Jan-03 03:28N 17°01' W 061°47'0 0.0
2018-Jan-03 02:58N 17°01' W 061°47'0 0.0
2018-Jan-03 02:28N 17°01' W 061°47'0 0.0
2018-Jan-03 01:58N 17°01' W 061°47'0 0.0
2018-Jan-03 01:28N 17°01' W 061°47'0 0.0
2018-Jan-03 00:58N 17°01' W 061°47'0 0.0
2018-Jan-03 00:28N 17°01' W 061°47'0 0.0
2018-Jan-02 23:58N 17°01' W 061°47'0 0.0
2018-Jan-02 23:28N 17°01' W 061°47'0 0.0
2018-Jan-02 22:58N 17°01' W 061°47'0 0.0
2018-Jan-02 22:28N 17°01' W 061°47'0 0.0
2018-Jan-02 21:58N 17°01' W 061°47'0 0.0
2018-Jan-02 21:28N 17°01' W 061°47'0 0.0
2018-Jan-02 20:58N 17°01' W 061°47'0 0.0
2018-Jan-02 20:28N 17°01' W 061°47'0 0.0
2018-Jan-02 19:58N 17°01' W 061°47'0 0.0
2018-Jan-02 19:28N 17°01' W 061°47'0 0.0
2018-Jan-02 18:52N 17°01' W 061°47'0 0.0
2018-Jan-02 18:28N 17°01' W 061°47'0 0.0
2018-Jan-02 17:58N 17°01' W 061°47'0 0.0
2018-Jan-02 17:28N 17°01' W 061°47'0 0.0
2018-Jan-02 16:58N 17°01' W 061°47'0 0.0
2018-Jan-02 16:28N 17°01' W 061°47'0 0.0
2018-Jan-02 15:58N 17°01' W 061°47'0 0.0
2018-Jan-02 15:28N 17°01' W 061°47'0 0.0
2018-Jan-02 14:58N 17°01' W 061°47'0 0.0
2018-Jan-02 14:28N 17°01' W 061°47'0 0.0
2018-Jan-02 13:58N 17°01' W 061°47'0 0.0
2018-Jan-02 13:28N 17°01' W 061°47'0 0.0
2018-Jan-02 12:58N 17°01' W 061°47'0 0.0
2018-Jan-02 12:28N 17°01' W 061°47'0 0.0
2018-Jan-02 11:58N 17°01' W 061°47'0 0.0
2018-Jan-02 11:28N 17°01' W 061°47'0 0.0
2018-Jan-02 10:58N 17°01' W 061°47'0 0.0
2018-Jan-02 10:28N 17°01' W 061°47'0 0.0
2018-Jan-02 09:58N 17°01' W 061°47'0 0.0
2018-Jan-02 09:28N 17°01' W 061°47'0 0.0
2018-Jan-02 08:28N 17°01' W 061°47'0 0.0
2018-Jan-02 07:58N 17°01' W 061°47'0 0.0
2018-Jan-02 07:28N 17°01' W 061°47'0 0.0
2018-Jan-02 06:52N 17°01' W 061°47'0 0.0
2018-Jan-02 06:28N 17°01' W 061°47'0 0.0
2018-Jan-02 05:58N 17°01' W 061°47'0 0.0
2018-Jan-02 05:28N 17°01' W 061°47'0 0.0
2018-Jan-02 04:28N 17°01' W 061°47'0 0.0
2018-Jan-02 03:58N 17°01' W 061°47'0 0.0
2018-Jan-02 03:28N 17°01' W 061°47'0 0.0
2018-Jan-02 02:58N 17°01' W 061°47'0 0.0
2018-Jan-02 02:28N 17°01' W 061°47'0 0.0
2018-Jan-02 01:58N 17°01' W 061°47'0 0.0
2018-Jan-02 01:28N 17°01' W 061°47'0 0.0
2018-Jan-02 00:58N 17°01' W 061°47'0 0.0
2018-Jan-02 00:28N 17°01' W 061°47'0 0.0
2018-Jan-01 23:58N 17°01' W 061°47'0 0.0
2018-Jan-01 23:28N 17°01' W 061°47'0 0.0
2018-Jan-01 22:58N 17°01' W 061°47'0 0.0
2018-Jan-01 22:28N 17°01' W 061°47'0 0.0
2018-Jan-01 21:58N 17°01' W 061°47'0 0.0
2018-Jan-01 21:28N 17°01' W 061°47'0 0.0
2018-Jan-01 20:58N 17°01' W 061°47'0 0.0
2018-Jan-01 20:28N 17°01' W 061°47'0 0.0
2018-Jan-01 19:58N 17°01' W 061°47'0 0.0
2018-Jan-01 19:28N 17°01' W 061°47'0 0.0
2018-Jan-01 18:58N 17°01' W 061°47'0 0.0
2018-Jan-01 18:28N 17°01' W 061°47'0 0.0
2018-Jan-01 17:58N 17°01' W 061°47'0 0.0
2018-Jan-01 17:28N 17°01' W 061°47'0 0.0
2018-Jan-01 14:58N 17°01' W 061°47'0 0.0
2018-Jan-01 14:28N 17°01' W 061°47'0 0.0
2018-Jan-01 13:58N 17°01' W 061°47'0 0.0
2018-Jan-01 13:28N 17°01' W 061°47'0 0.0
2018-Jan-01 12:58N 17°01' W 061°47'0 0.0
2018-Jan-01 11:58N 17°01' W 061°47'0 0.0
2018-Jan-01 11:28N 17°01' W 061°47'0 0.0
2018-Jan-01 10:58N 17°01' W 061°47'0 0.0
2018-Jan-01 10:28N 17°01' W 061°47'0 0.0
2018-Jan-01 09:58N 17°01' W 061°47'0 0.0
2018-Jan-01 09:28N 17°01' W 061°47'0 0.0
2018-Jan-01 08:28N 17°01' W 061°47'0 0.0
2018-Jan-01 07:58N 17°01' W 061°47'0 0.0
2018-Jan-01 07:25N 17°01' W 061°47'0 0.0
2018-Jan-01 06:58N 17°01' W 061°47'0 0.0
2018-Jan-01 05:58N 17°01' W 061°47'0 0.0
2018-Jan-01 05:28N 17°01' W 061°47'0 0.0
2018-Jan-01 04:58N 17°01' W 061°47'0 0.0
2018-Jan-01 03:58N 17°01' W 061°47'0 0.0
2018-Jan-01 03:28N 17°01' W 061°47'0 0.0
2018-Jan-01 02:58N 17°01' W 061°47'0 0.0
2018-Jan-01 02:28N 17°01' W 061°47'0 0.0
2018-Jan-01 01:58N 17°01' W 061°47'0 0.0
2018-Jan-01 01:28N 17°01' W 061°47'0 0.0
2018-Jan-01 00:28N 17°01' W 061°47'0 0.0
2017-Dec-31 20:58N 17°01' W 061°47'0 0.0
2017-Dec-31 20:28N 17°01' W 061°47'0 0.0
2017-Dec-31 19:58N 17°01' W 061°47'0 0.0
2017-Dec-31 19:28N 17°01' W 061°47'0 0.0
2017-Dec-31 18:58N 17°01' W 061°47'0 0.0
2017-Dec-31 18:28N 17°01' W 061°47'0 0.0
2017-Dec-31 17:58N 17°01' W 061°47'0 0.0
2017-Dec-31 17:28N 17°01' W 061°47'0 0.0
2017-Dec-31 16:58N 17°01' W 061°47'0 0.0
2017-Dec-31 16:28N 17°01' W 061°47'0 0.0
2017-Dec-31 15:58N 17°01' W 061°47'0 0.0
2017-Dec-31 15:28N 17°01' W 061°47'0 0.0
2017-Dec-31 14:58N 17°01' W 061°47'0 0.0
2017-Dec-31 14:28N 17°01' W 061°47'0 0.0
2017-Dec-31 13:58N 17°01' W 061°47'0 0.0
2017-Dec-31 13:28N 17°01' W 061°47'0 0.0
2017-Dec-31 12:58N 17°01' W 061°47'0 0.0
2017-Dec-31 12:28N 17°01' W 061°47'0 0.0
2017-Dec-31 11:58N 17°01' W 061°47'0 0.0
2017-Dec-31 11:28N 17°01' W 061°47'0 0.0
2017-Dec-31 10:58N 17°01' W 061°47'0 0.0
2017-Dec-31 10:28N 17°01' W 061°47'0 0.0
2017-Dec-31 09:58N 17°01' W 061°47'0 0.0
2017-Dec-31 09:28N 17°01' W 061°47'0 0.0
2017-Dec-31 08:58N 17°01' W 061°47'0 0.0
2017-Dec-31 08:28N 17°01' W 061°47'0 0.0
2017-Dec-31 07:58N 17°01' W 061°47'0 0.0
2017-Dec-31 07:28N 17°01' W 061°47'0 0.0
2017-Dec-31 06:58N 17°01' W 061°47'0 0.0
2017-Dec-31 06:28N 17°01' W 061°47'0 0.0
2017-Dec-31 05:58N 17°01' W 061°47'0 0.0
2017-Dec-31 05:28N 17°01' W 061°47'0 0.0
2017-Dec-31 04:58N 17°01' W 061°47'0 0.0
2017-Dec-31 04:28N 17°01' W 061°47'0 0.0
2017-Dec-31 03:58N 17°01' W 061°47'0 0.0
2017-Dec-31 03:28N 17°01' W 061°47'0 0.0
2017-Dec-31 02:58N 17°01' W 061°47'0 0.0
2017-Dec-31 02:28N 17°01' W 061°47'0 0.0
2017-Dec-31 01:58N 17°01' W 061°47'0 0.0
2017-Dec-31 01:28N 17°01' W 061°47'0 0.0
2017-Dec-31 00:58N 17°01' W 061°47'0 0.0
2017-Dec-31 00:28N 17°01' W 061°47'0 0.0
2017-Dec-30 23:58N 17°01' W 061°47'0 0.0
2017-Dec-30 23:28N 17°01' W 061°47'0 0.0
2017-Dec-30 22:58N 17°01' W 061°47'0 0.0
2017-Dec-30 22:28N 17°01' W 061°47'0 0.0
2017-Dec-30 21:58N 17°01' W 061°47'0 0.0
2017-Dec-30 21:28N 17°01' W 061°47'0 0.0
2017-Dec-30 20:58N 17°01' W 061°47'0 0.0
2017-Dec-30 20:28N 17°01' W 061°47'0 0.0
2017-Dec-30 19:58N 17°01' W 061°47'0 0.0
2017-Dec-30 19:25N 17°01' W 061°47'0 0.0
2017-Dec-30 18:58N 17°01' W 061°47'0 0.0
2017-Dec-30 18:28N 17°01' W 061°47'0 0.0
2017-Dec-30 17:58N 17°01' W 061°47'0 0.0
2017-Dec-30 17:28N 17°01' W 061°47'0 0.0
2017-Dec-30 16:58N 17°01' W 061°47'0 0.0
2017-Dec-30 16:28N 17°01' W 061°47'0 0.0
2017-Dec-30 15:58N 17°01' W 061°47'0 0.0
2017-Dec-30 15:28N 17°01' W 061°47'0 0.0
2017-Dec-30 14:58N 17°01' W 061°47'0 0.0
2017-Dec-30 14:28N 17°01' W 061°47'0 0.0
2017-Dec-30 13:58N 17°01' W 061°47'0 0.0
2017-Dec-30 13:28N 17°01' W 061°47'0 0.0
2017-Dec-30 12:58N 17°01' W 061°47'0 0.0
2017-Dec-30 12:28N 17°01' W 061°47'0 0.0
2017-Dec-30 11:58N 17°01' W 061°47'0 0.0
2017-Dec-30 11:28N 17°01' W 061°47'0 0.0
2017-Dec-30 10:58N 17°01' W 061°47'0 0.0
2017-Dec-30 10:28N 17°01' W 061°47'0 0.0
2017-Dec-30 09:58N 17°01' W 061°47'0 0.0
2017-Dec-30 09:28N 17°01' W 061°47'0 0.0
2017-Dec-30 08:58N 17°01' W 061°47'0 0.0
2017-Dec-30 08:28N 17°01' W 061°47'0 0.0
2017-Dec-30 07:58N 17°01' W 061°47'0 0.0
2017-Dec-30 07:28N 17°01' W 061°47'0 0.0
2017-Dec-30 06:58N 17°01' W 061°47'0 0.0
2017-Dec-30 06:28N 17°01' W 061°47'0 0.0
2017-Dec-30 05:58N 17°01' W 061°47'0 0.0
2017-Dec-30 05:28N 17°01' W 061°47'0 0.0
2017-Dec-30 04:58N 17°01' W 061°47'0 0.0
2017-Dec-30 04:28N 17°01' W 061°47'0 0.0
2017-Dec-30 03:58N 17°01' W 061°47'0 0.0
2017-Dec-30 03:28N 17°01' W 061°47'0 0.0
2017-Dec-30 03:01N 17°01' W 061°47'0 0.0
2017-Dec-30 02:31N 17°01' W 061°47'0 0.0
2017-Dec-30 01:58N 17°01' W 061°47'0 0.0
2017-Dec-30 01:31N 17°01' W 061°47'0 0.0
2017-Dec-30 01:01N 17°01' W 061°47'0 0.0
2017-Dec-30 00:28N 17°01' W 061°47'0 0.0
2017-Dec-30 00:01N 17°01' W 061°47'0 0.0
2017-Dec-29 23:31N 17°01' W 061°47'0 0.0
2017-Dec-29 22:58N 17°01' W 061°47'0 0.0
2017-Dec-29 22:28N 17°01' W 061°47'0 0.0
2017-Dec-29 22:01N 17°01' W 061°47'0 0.0
2017-Dec-29 21:31N 17°01' W 061°47'0 0.0
2017-Dec-29 21:01N 17°01' W 061°47'0 0.0
2017-Dec-29 20:28N 17°01' W 061°47'0 0.0
2017-Dec-29 20:00N 17°01' W 061°47'0 0.0
2017-Dec-29 19:28N 17°01' W 061°47'0 0.0
2017-Dec-29 18:58N 17°01' W 061°47'0 0.0
2017-Dec-29 18:27N 17°01' W 061°47'0 0.0
2017-Dec-29 18:01N 17°01' W 061°47'0 0.0
2017-Dec-29 17:28N 17°01' W 061°47'0 0.0
2017-Dec-29 16:57N 17°01' W 061°47'0 0.0
2017-Dec-29 16:28N 17°01' W 061°47'0 0.0
2017-Dec-29 16:01N 17°01' W 061°47'0 0.0
2017-Dec-29 15:30N 17°01' W 061°47'0 0.0
2017-Dec-29 15:00N 17°01' W 061°47'0 0.0
2017-Dec-29 14:28N 17°01' W 061°47'0 0.0
2017-Dec-29 14:00N 17°01' W 061°47'0 0.0
2017-Dec-29 13:30N 17°01' W 061°47'0 0.0
2017-Dec-29 12:58N 17°01' W 061°47'0 0.0
2017-Dec-29 12:31N 17°01' W 061°47'0 0.0
2017-Dec-29 11:57N 17°01' W 061°47'0 0.0
2017-Dec-29 11:30N 17°01' W 061°47'0 0.0
2017-Dec-29 11:00N 17°01' W 061°47'0 0.0
2017-Dec-29 10:27N 17°01' W 061°47'0 0.0
2017-Dec-29 10:00N 17°01' W 061°47'0 0.0
2017-Dec-29 09:30N 17°01' W 061°47'0 0.0
2017-Dec-29 09:01N 17°01' W 061°47'0 0.0
2017-Dec-29 08:30N 17°01' W 061°47'0 0.0
2017-Dec-29 08:00N 17°01' W 061°47'0 0.0
2017-Dec-29 07:27N 17°01' W 061°47'0 0.0
2017-Dec-29 07:00N 17°01' W 061°47'0 0.0
2017-Dec-29 06:30N 17°01' W 061°47'0 0.0
2017-Dec-29 06:00N 17°01' W 061°47'0 0.0
2017-Dec-29 05:30N 17°01' W 061°47'0 0.0
2017-Dec-29 05:01N 17°01' W 061°47'0 0.0
2017-Dec-29 04:30N 17°01' W 061°47'0 0.0
2017-Dec-29 04:00N 17°01' W 061°47'0 0.0
2017-Dec-29 03:30N 17°01' W 061°47'0 0.0
2017-Dec-29 03:00N 17°01' W 061°47'0 0.0
2017-Dec-29 02:31N 17°01' W 061°47'0 0.0
2017-Dec-29 02:00N 17°01' W 061°47'0 0.0
2017-Dec-29 01:30N 17°01' W 061°47'0 0.0
2017-Dec-29 01:00N 17°01' W 061°47'0 0.0
2017-Dec-29 00:30N 17°01' W 061°47'0 0.0
2017-Dec-29 00:00N 17°01' W 061°47'0 0.0
2017-Dec-28 23:30N 17°01' W 061°47'0 0.0
2017-Dec-28 23:00N 17°01' W 061°47'0 0.0
2017-Dec-28 22:30N 17°01' W 061°47'0 0.0
2017-Dec-28 22:00N 17°01' W 061°47'0 0.0
2017-Dec-28 21:30N 17°01' W 061°47'  
Track history (hours):
 
Tides and Currents Weather Stations Pressure Air Temp Water Temp Dewpoint Dewpoint Depression Visibility Wind Speed Wind Dir Waves Ship Positions

Panacea

Last reported at 2018-Jan-07 21:20 UTC. Time now 2018-Feb-19 12:11 UTC.
Position N 16°60' W 062°39'.
Warning: this ship's position is 42 days out of date.

Length 28 m; draft 4.2 m.

Type: Ship. MMSI: 319066600.

Date/timePositionNaut miles runAvg speedWind from/ knotsBaromVisibWave heightAir tempDewpointWater temp
2018-Jan-07 21:20N 16°60' W 062°39'13 7.8
2018-Jan-07 19:40N 17°03' W 062°26'4 8.4
2018-Jan-07 19:14N 17°00' W 062°23'3 8.3
2018-Jan-07 18:54N 16°59' W 062°21'3 8.3
2018-Jan-07 18:30N 16°57' W 062°19'4 7.9
2018-Jan-07 18:00N 16°58' W 062°15'5 9.3
2018-Jan-07 17:31N 16°60' W 062°10'510.4
2018-Jan-07 17:00N 16°60' W 062°05'510.0
2018-Jan-07 16:30N 16°60' W 061°60'510.3
2018-Jan-07 16:00N 16°60' W 061°54'510.0
2018-Jan-07 15:31N 16°60' W 061°49'3 5.2
2018-Jan-07 15:00N 17°01' W 061°47'0 1.0
2018-Jan-07 14:30N 17°01' W 061°47'0 0.0
2018-Jan-07 14:00N 17°01' W 061°47'0 0.0
2018-Jan-07 13:30N 17°01' W 061°47'0 0.0
2018-Jan-07 13:00N 17°01' W 061°47'0 0.0
2018-Jan-07 12:30N 17°01' W 061°47'0 0.0
2018-Jan-07 12:00N 17°01' W 061°47'0 0.0
2018-Jan-07 11:30N 17°01' W 061°47'0 0.0
2018-Jan-07 10:58N 17°01' W 061°47'0 0.0
2018-Jan-07 10:28N 17°01' W 061°47'0 0.0
2018-Jan-07 09:58N 17°01' W 061°47'0 0.0
2018-Jan-07 09:28N 17°01' W 061°47'0 0.0
2018-Jan-07 08:58N 17°01' W 061°47'0 0.0
2018-Jan-07 08:28N 17°01' W 061°47'0 0.0
2018-Jan-07 07:58N 17°01' W 061°47'0 0.0
2018-Jan-07 07:28N 17°01' W 061°47'0 0.0
2018-Jan-07 06:58N 17°01' W 061°47'0 0.0
2018-Jan-07 06:28N 17°01' W 061°47'0 0.0
2018-Jan-07 05:58N 17°01' W 061°47'0 0.0
2018-Jan-07 05:28N 17°01' W 061°47'0 0.0
2018-Jan-07 04:58N 17°01' W 061°47'0 0.0
2018-Jan-07 04:28N 17°01' W 061°47'0 0.0
2018-Jan-07 03:58N 17°01' W 061°47'0 0.0
2018-Jan-07 03:28N 17°01' W 061°47'0 0.0
2018-Jan-07 02:58N 17°01' W 061°47'0 0.0
2018-Jan-07 02:28N 17°01' W 061°47'0 0.0
2018-Jan-07 01:58N 17°01' W 061°47'0 0.0
2018-Jan-07 01:28N 17°01' W 061°47'0 0.0
2018-Jan-07 00:28N 17°01' W 061°47'0 0.0
2018-Jan-06 23:58N 17°01' W 061°47'0 0.0
2018-Jan-06 23:28N 17°01' W 061°47'0 0.0
2018-Jan-06 22:58N 17°01' W 061°47'0 0.0
2018-Jan-06 22:28N 17°01' W 061°47'0 0.0
2018-Jan-06 21:58N 17°01' W 061°47'0 0.0
2018-Jan-06 21:28N 17°01' W 061°47'0 0.0
2018-Jan-06 20:58N 17°01' W 061°47'0 0.0
2018-Jan-06 20:28N 17°01' W 061°47'0 0.0
2018-Jan-06 19:58N 17°01' W 061°47'0 0.0
2018-Jan-06 19:28N 17°01' W 061°47'0 0.0
2018-Jan-06 18:58N 17°01' W 061°47'0 0.0
2018-Jan-06 18:28N 17°01' W 061°47'0 0.0
2018-Jan-06 17:58N 17°01' W 061°47'0 0.0
2018-Jan-06 17:28N 17°01' W 061°47'0 0.0
2018-Jan-06 16:58N 17°01' W 061°47'0 0.0
2018-Jan-06 16:28N 17°01' W 061°47'0 0.0
2018-Jan-06 15:58N 17°01' W 061°47'0 0.0
2018-Jan-06 15:28N 17°01' W 061°47'0 0.0
2018-Jan-06 14:55N 17°01' W 061°47'0 0.0
2018-Jan-06 14:28N 17°01' W 061°47'0 0.0
2018-Jan-06 13:58N 17°01' W 061°47'0 0.0
2018-Jan-06 13:28N 17°01' W 061°47'0 0.0
2018-Jan-06 12:58N 17°01' W 061°47'0 0.0
2018-Jan-06 12:28N 17°01' W 061°47'0 0.0
2018-Jan-06 11:58N 17°01' W 061°47'0 0.0
2018-Jan-06 11:28N 17°01' W 061°47'0 0.0
2018-Jan-06 10:58N 17°01' W 061°47'0 0.0
2018-Jan-06 10:25N 17°01' W 061°47'0 0.0
2018-Jan-06 09:58N 17°01' W 061°47'0 0.0
2018-Jan-06 09:28N 17°01' W 061°47'0 0.0
2018-Jan-06 08:58N 17°01' W 061°47'0 0.0
2018-Jan-06 08:28N 17°01' W 061°47'0 0.0
2018-Jan-06 07:58N 17°01' W 061°47'0 0.0
2018-Jan-06 07:28N 17°01' W 061°47'0 0.0
2018-Jan-06 06:58N 17°01' W 061°47'0 0.0
2018-Jan-06 06:28N 17°01' W 061°47'0 0.0
2018-Jan-06 05:58N 17°01' W 061°47'0 0.0
2018-Jan-06 05:28N 17°01' W 061°47'0 0.0
2018-Jan-06 04:58N 17°01' W 061°47'0 0.0
2018-Jan-06 04:28N 17°01' W 061°47'0 0.0
2018-Jan-06 03:58N 17°01' W 061°47'0 0.0
2018-Jan-06 03:28N 17°01' W 061°47'0 0.0
2018-Jan-06 02:58N 17°01' W 061°47'0 0.0
2018-Jan-06 02:28N 17°01' W 061°47'0 0.0
2018-Jan-06 01:58N 17°01' W 061°47'0 0.0
2018-Jan-06 01:28N 17°01' W 061°47'0 0.0
2018-Jan-06 00:58N 17°01' W 061°47'0 0.0
2018-Jan-06 00:28N 17°01' W 061°47'0 0.0
2018-Jan-05 23:58N 17°01' W 061°47'0 0.0
2018-Jan-05 23:28N 17°01' W 061°47'0 0.0
2018-Jan-05 22:58N 17°01' W 061°47'0 0.0
2018-Jan-05 22:28N 17°01' W 061°47'0 0.0
2018-Jan-05 21:58N 17°01' W 061°47'0 0.0
2018-Jan-05 21:28N 17°01' W 061°47'0 0.0
2018-Jan-05 20:58N 17°01' W 061°47'0 0.0
2018-Jan-05 20:28N 17°01' W 061°47'0 0.0
2018-Jan-05 19:58N 17°01' W 061°47'0 0.0
2018-Jan-05 19:28N 17°01' W 061°47'0 0.0
2018-Jan-05 18:58N 17°01' W 061°47'0 0.0
2018-Jan-05 18:28N 17°01' W 061°47'0 0.0
2018-Jan-05 17:55N 17°01' W 061°47'0 0.0
2018-Jan-05 17:25N 17°01' W 061°47'0 0.0
2018-Jan-05 16:58N 17°01' W 061°47'0 0.0
2018-Jan-05 16:28N 17°01' W 061°47'0 0.0
2018-Jan-05 15:58N 17°01' W 061°47'0 0.0
2018-Jan-05 15:28N 17°01' W 061°47'0 0.0
2018-Jan-05 14:58N 17°01' W 061°47'0 0.0
2018-Jan-05 14:28N 17°01' W 061°47'0 0.0
2018-Jan-05 13:58N 17°01' W 061°47'0 0.0
2018-Jan-05 13:28N 17°01' W 061°47'0 0.0
2018-Jan-05 12:58N 17°01' W 061°47'0 0.0
2018-Jan-05 12:28N 17°01' W 061°47'0 0.0
2018-Jan-05 11:55N 17°01' W 061°47'0 0.0
2018-Jan-05 11:28N 17°01' W 061°47'0 0.0
2018-Jan-05 10:58N 17°01' W 061°47'0 0.0
2018-Jan-05 10:28N 17°01' W 061°47'0 0.0
2018-Jan-05 09:58N 17°01' W 061°47'0 0.0
2018-Jan-05 09:28N 17°01' W 061°47'0 0.0
2018-Jan-05 08:58N 17°01' W 061°47'0 0.0
2018-Jan-05 08:28N 17°01' W 061°47'0 0.0
2018-Jan-05 07:58N 17°01' W 061°47'0 0.0
2018-Jan-05 07:28N 17°01' W 061°47'0 0.0
2018-Jan-05 06:58N 17°01' W 061°47'0 0.0
2018-Jan-05 06:28N 17°01' W 061°47'0 0.0
2018-Jan-05 05:58N 17°01' W 061°47'0 0.0
2018-Jan-05 05:28N 17°01' W 061°47'0 0.0
2018-Jan-05 04:58N 17°01' W 061°47'0 0.0
2018-Jan-05 04:28N 17°01' W 061°47'0 0.0
2018-Jan-05 03:58N 17°01' W 061°47'0 0.0
2018-Jan-05 03:28N 17°01' W 061°47'0 0.0
2018-Jan-05 02:58N 17°01' W 061°47'0 0.0
2018-Jan-05 02:28N 17°01' W 061°47'0 0.0
2018-Jan-05 01:58N 17°01' W 061°47'0 0.0
2018-Jan-05 01:28N 17°01' W 061°47'0 0.0
2018-Jan-05 00:58N 17°01' W 061°47'0 0.0
2018-Jan-05 00:28N 17°01' W 061°47'0 0.0
2018-Jan-04 23:58N 17°01' W 061°47'0 0.0
2018-Jan-04 23:28N 17°01' W 061°47'0 0.0
2018-Jan-04 22:58N 17°01' W 061°47'0 0.0
2018-Jan-04 22:28N 17°01' W 061°47'0 0.0
2018-Jan-04 21:58N 17°01' W 061°47'0 0.0
2018-Jan-04 21:28N 17°01' W 061°47'0 0.0
2018-Jan-04 20:58N 17°01' W 061°47'0 0.0
2018-Jan-04 20:28N 17°01' W 061°47'0 0.0
2018-Jan-04 19:58N 17°01' W 061°47'0 0.0
2018-Jan-04 19:28N 17°01' W 061°47'0 0.0
2018-Jan-04 18:58N 17°01' W 061°47'0 0.0
2018-Jan-04 18:28N 17°01' W 061°47'0 0.0
2018-Jan-04 17:58N 17°01' W 061°47'0 0.0
2018-Jan-04 17:28N 17°01' W 061°47'0 0.0
2018-Jan-04 16:58N 17°01' W 061°47'0 0.0
2018-Jan-04 16:28N 17°01' W 061°47'0 0.0
2018-Jan-04 15:58N 17°01' W 061°47'0 0.0
2018-Jan-04 15:28N 17°01' W 061°47'0 0.0
2018-Jan-04 14:55N 17°01' W 061°47'0 0.0
2018-Jan-04 14:28N 17°01' W 061°47'0 0.0
2018-Jan-04 13:58N 17°01' W 061°47'0 0.0
2018-Jan-04 13:28N 17°01' W 061°47'0 0.0
2018-Jan-04 12:58N 17°01' W 061°47'0 0.0
2018-Jan-04 12:28N 17°01' W 061°47'0 0.0
2018-Jan-04 11:58N 17°01' W 061°47'0 0.0
2018-Jan-04 11:28N 17°01' W 061°47'0 0.0
2018-Jan-04 10:58N 17°01' W 061°47'0 0.0
2018-Jan-04 10:28N 17°01' W 061°47'0 0.0
2018-Jan-04 09:58N 17°01' W 061°47'0 0.0
2018-Jan-04 09:28N 17°01' W 061°47'0 0.0
2018-Jan-04 08:58N 17°01' W 061°47'0 0.0
2018-Jan-04 08:28N 17°01' W 061°47'0 0.0
2018-Jan-04 07:58N 17°01' W 061°47'0 0.0
2018-Jan-04 07:28N 17°01' W 061°47'0 0.0
2018-Jan-04 06:58N 17°01' W 061°47'0 0.0
2018-Jan-04 06:28N 17°01' W 061°47'0 0.0
2018-Jan-04 05:58N 17°01' W 061°47'0 0.0
2018-Jan-04 05:28N 17°01' W 061°47'0 0.0
2018-Jan-04 04:58N 17°01' W 061°47'0 0.0
2018-Jan-04 04:28N 17°01' W 061°47'0 0.0
2018-Jan-04 03:58N 17°01' W 061°47'0 0.0
2018-Jan-04 03:28N 17°01' W 061°47'0 0.0
2018-Jan-04 02:58N 17°01' W 061°47'0 0.0
2018-Jan-04 02:28N 17°01' W 061°47'0 0.0
2018-Jan-04 01:58N 17°01' W 061°47'0 0.0
2018-Jan-04 01:28N 17°01' W 061°47'0 0.0
2018-Jan-04 00:58N 17°01' W 061°47'0 0.0
2018-Jan-04 00:28N 17°01' W 061°47'0 0.0
2018-Jan-03 23:58N 17°01' W 061°47'0 0.0
2018-Jan-03 23:28N 17°01' W 061°47'0 0.0
2018-Jan-03 22:58N 17°01' W 061°47'0 0.0
2018-Jan-03 22:28N 17°01' W 061°47'0 0.0
2018-Jan-03 21:58N 17°01' W 061°47'0 0.0
2018-Jan-03 21:28N 17°01' W 061°47'0 0.0
2018-Jan-03 20:58N 17°01' W 061°47'0 0.0
2018-Jan-03 20:28N 17°01' W 061°47'0 0.0
2018-Jan-03 19:58N 17°01' W 061°47'0 0.0
2018-Jan-03 19:28N 17°01' W 061°47'0 0.0
2018-Jan-03 18:58N 17°01' W 061°47'0 0.0
2018-Jan-03 18:28N 17°01' W 061°47'0 0.0
2018-Jan-03 17:58N 17°01' W 061°47'0 0.0
2018-Jan-03 17:28N 17°01' W 061°47'0 0.0
2018-Jan-03 16:58N 17°01' W 061°47'0 0.0
2018-Jan-03 16:28N 17°01' W 061°47'0 0.0
2018-Jan-03 15:58N 17°01' W 061°47'0 0.0
2018-Jan-03 15:28N 17°01' W 061°47'0 0.0
2018-Jan-03 14:58N 17°01' W 061°47'0 0.0
2018-Jan-03 14:28N 17°01' W 061°47'0 0.0
2018-Jan-03 13:58N 17°01' W 061°47'0 0.0
2018-Jan-03 13:28N 17°01' W 061°47'0 0.0
2018-Jan-03 12:58N 17°01' W 061°47'0 0.0
2018-Jan-03 12:28N 17°01' W 061°47'0 0.0
2018-Jan-03 11:55N 17°01' W 061°47'0 0.0
2018-Jan-03 11:28N 17°01' W 061°47'0 0.0
2018-Jan-03 10:58N 17°01' W 061°47'0 0.0
2018-Jan-03 10:28N 17°01' W 061°47'0 0.0
2018-Jan-03 09:58N 17°01' W 061°47'0 0.0
2018-Jan-03 09:28N 17°01' W 061°47'0 0.0
2018-Jan-03 08:58N 17°01' W 061°47'0 0.0
2018-Jan-03 08:28N 17°01' W 061°47'0 0.0
2018-Jan-03 07:58N 17°01' W 061°47'0 0.0
2018-Jan-03 07:28N 17°01' W 061°47'0 0.0
2018-Jan-03 06:58N 17°01' W 061°47'0 0.0
2018-Jan-03 06:28N 17°01' W 061°47'0 0.0
2018-Jan-03 05:58N 17°01' W 061°47'0 0.0
2018-Jan-03 05:28N 17°01' W 061°47'0 0.0
2018-Jan-03 04:58N 17°01' W 061°47'0 0.0
2018-Jan-03 04:28N 17°01' W 061°47'0 0.0
2018-Jan-03 03:58N 17°01' W 061°47'0 0.0
2018-Jan-03 03:28N 17°01' W 061°47'0 0.0
2018-Jan-03 02:58N 17°01' W 061°47'0 0.0
2018-Jan-03 02:28N 17°01' W 061°47'0 0.0
2018-Jan-03 01:58N 17°01' W 061°47'0 0.0
2018-Jan-03 01:28N 17°01' W 061°47'0 0.0
2018-Jan-03 00:58N 17°01' W 061°47'0 0.0
2018-Jan-03 00:28N 17°01' W 061°47'0 0.0
2018-Jan-02 23:58N 17°01' W 061°47'0 0.0
2018-Jan-02 23:28N 17°01' W 061°47'0 0.0
2018-Jan-02 22:58N 17°01' W 061°47'0 0.0
2018-Jan-02 22:28N 17°01' W 061°47'0 0.0
2018-Jan-02 21:58N 17°01' W 061°47'0 0.0
2018-Jan-02 21:28N 17°01' W 061°47'0 0.0
2018-Jan-02 20:58N 17°01' W 061°47'0 0.0
2018-Jan-02 20:28N 17°01' W 061°47'0 0.0
2018-Jan-02 19:58N 17°01' W 061°47'0 0.0
2018-Jan-02 19:28N 17°01' W 061°47'0 0.0
2018-Jan-02 18:52N 17°01' W 061°47'0 0.0
2018-Jan-02 18:28N 17°01' W 061°47'0 0.0
2018-Jan-02 17:58N 17°01' W 061°47'0 0.0
2018-Jan-02 17:28N 17°01' W 061°47'0 0.0
2018-Jan-02 16:58N 17°01' W 061°47'0 0.0
2018-Jan-02 16:28N 17°01' W 061°47'0 0.0
2018-Jan-02 15:58N 17°01' W 061°47'0 0.0
2018-Jan-02 15:28N 17°01' W 061°47'0 0.0
2018-Jan-02 14:58N 17°01' W 061°47'0 0.0
2018-Jan-02 14:28N 17°01' W 061°47'0 0.0
2018-Jan-02 13:58N 17°01' W 061°47'0 0.0
2018-Jan-02 13:28N 17°01' W 061°47'0 0.0
2018-Jan-02 12:58N 17°01' W 061°47'0 0.0
2018-Jan-02 12:28N 17°01' W 061°47'0 0.0
2018-Jan-02 11:58N 17°01' W 061°47'0 0.0
2018-Jan-02 11:28N 17°01' W 061°47'0 0.0
2018-Jan-02 10:58N 17°01' W 061°47'0 0.0
2018-Jan-02 10:28N 17°01' W 061°47'0 0.0
2018-Jan-02 09:58N 17°01' W 061°47'0 0.0
2018-Jan-02 09:28N 17°01' W 061°47'0 0.0
2018-Jan-02 08:28N 17°01' W 061°47'0 0.0
2018-Jan-02 07:58N 17°01' W 061°47'0 0.0
2018-Jan-02 07:28N 17°01' W 061°47'0 0.0
2018-Jan-02 06:52N 17°01' W 061°47'0 0.0
2018-Jan-02 06:28N 17°01' W 061°47'0 0.0
2018-Jan-02 05:58N 17°01' W 061°47'0 0.0
2018-Jan-02 05:28N 17°01' W 061°47'0 0.0
2018-Jan-02 04:28N 17°01' W 061°47'0 0.0
2018-Jan-02 03:58N 17°01' W 061°47'0 0.0
2018-Jan-02 03:28N 17°01' W 061°47'0 0.0
2018-Jan-02 02:58N 17°01' W 061°47'0 0.0
2018-Jan-02 02:28N 17°01' W 061°47'0 0.0
2018-Jan-02 01:58N 17°01' W 061°47'0 0.0
2018-Jan-02 01:28N 17°01' W 061°47'0 0.0
2018-Jan-02 00:58N 17°01' W 061°47'0 0.0
2018-Jan-02 00:28N 17°01' W 061°47'0 0.0
2018-Jan-01 23:58N 17°01' W 061°47'0 0.0
2018-Jan-01 23:28N 17°01' W 061°47'0 0.0
2018-Jan-01 22:58N 17°01' W 061°47'0 0.0
2018-Jan-01 22:28N 17°01' W 061°47'0 0.0
2018-Jan-01 21:58N 17°01' W 061°47'0 0.0
2018-Jan-01 21:28N 17°01' W 061°47'0 0.0
2018-Jan-01 20:58N 17°01' W 061°47'0 0.0
2018-Jan-01 20:28N 17°01' W 061°47'0 0.0
2018-Jan-01 19:58N 17°01' W 061°47'0 0.0
2018-Jan-01 19:28N 17°01' W 061°47'0 0.0
2018-Jan-01 18:58N 17°01' W 061°47'0 0.0
2018-Jan-01 18:28N 17°01' W 061°47'0 0.0
2018-Jan-01 17:58N 17°01' W 061°47'0 0.0
2018-Jan-01 17:28N 17°01' W 061°47'0 0.0
2018-Jan-01 14:58N 17°01' W 061°47'0 0.0
2018-Jan-01 14:28N 17°01' W 061°47'0 0.0
2018-Jan-01 13:58N 17°01' W 061°47'0 0.0
2018-Jan-01 13:28N 17°01' W 061°47'0 0.0
2018-Jan-01 12:58N 17°01' W 061°47'0 0.0
2018-Jan-01 11:58N 17°01' W 061°47'0 0.0
2018-Jan-01 11:28N 17°01' W 061°47'0 0.0
2018-Jan-01 10:58N 17°01' W 061°47'0 0.0
2018-Jan-01 10:28N 17°01' W 061°47'0 0.0
2018-Jan-01 09:58N 17°01' W 061°47'0 0.0
2018-Jan-01 09:28N 17°01' W 061°47'0 0.0
2018-Jan-01 08:28N 17°01' W 061°47'0 0.0
2018-Jan-01 07:58N 17°01' W 061°47'0 0.0
2018-Jan-01 07:25N 17°01' W 061°47'0 0.0
2018-Jan-01 06:58N 17°01' W 061°47'0 0.0
2018-Jan-01 05:58N 17°01' W 061°47'0 0.0
2018-Jan-01 05:28N 17°01' W 061°47'0 0.0
2018-Jan-01 04:58N 17°01' W 061°47'0 0.0
2018-Jan-01 03:58N 17°01' W 061°47'0 0.0
2018-Jan-01 03:28N 17°01' W 061°47'0 0.0
2018-Jan-01 02:58N 17°01' W 061°47'0 0.0
2018-Jan-01 02:28N 17°01' W 061°47'0 0.0
2018-Jan-01 01:58N 17°01' W 061°47'0 0.0
2018-Jan-01 01:28N 17°01' W 061°47'0 0.0
2018-Jan-01 00:28N 17°01' W 061°47'0 0.0
2017-Dec-31 20:58N 17°01' W 061°47'0 0.0
2017-Dec-31 20:28N 17°01' W 061°47'0 0.0
2017-Dec-31 19:58N 17°01' W 061°47'0 0.0
2017-Dec-31 19:28N 17°01' W 061°47'0 0.0
2017-Dec-31 18:58N 17°01' W 061°47'0 0.0
2017-Dec-31 18:28N 17°01' W 061°47'0 0.0
2017-Dec-31 17:58N 17°01' W 061°47'0 0.0
2017-Dec-31 17:28N 17°01' W 061°47'0 0.0
2017-Dec-31 16:58N 17°01' W 061°47'0 0.0
2017-Dec-31 16:28N 17°01' W 061°47'0 0.0
2017-Dec-31 15:58N 17°01' W 061°47'0 0.0
2017-Dec-31 15:28N 17°01' W 061°47'0 0.0
2017-Dec-31 14:58N 17°01' W 061°47'0 0.0
2017-Dec-31 14:28N 17°01' W 061°47'0 0.0
2017-Dec-31 13:58N 17°01' W 061°47'0 0.0
2017-Dec-31 13:28N 17°01' W 061°47'0 0.0
2017-Dec-31 12:58N 17°01' W 061°47'0 0.0
2017-Dec-31 12:28N 17°01' W 061°47'0 0.0
2017-Dec-31 11:58N 17°01' W 061°47'0 0.0
2017-Dec-31 11:28N 17°01' W 061°47'0 0.0
2017-Dec-31 10:58N 17°01' W 061°47'0 0.0
2017-Dec-31 10:28N 17°01' W 061°47'0 0.0
2017-Dec-31 09:58N 17°01' W 061°47'0 0.0
2017-Dec-31 09:28N 17°01' W 061°47'0 0.0
2017-Dec-31 08:58N 17°01' W 061°47'0 0.0
2017-Dec-31 08:28N 17°01' W 061°47'0 0.0
2017-Dec-31 07:58N 17°01' W 061°47'0 0.0
2017-Dec-31 07:28N 17°01' W 061°47'0 0.0
2017-Dec-31 06:58N 17°01' W 061°47'0 0.0
2017-Dec-31 06:28N 17°01' W 061°47'0 0.0
2017-Dec-31 05:58N 17°01' W 061°47'0 0.0
2017-Dec-31 05:28N 17°01' W 061°47'0 0.0
2017-Dec-31 04:58N 17°01' W 061°47'0 0.0
2017-Dec-31 04:28N 17°01' W 061°47'0 0.0
2017-Dec-31 03:58N 17°01' W 061°47'0 0.0
2017-Dec-31 03:28N 17°01' W 061°47'0 0.0
2017-Dec-31 02:58N 17°01' W 061°47'0 0.0
2017-Dec-31 02:28N 17°01' W 061°47'0 0.0
2017-Dec-31 01:58N 17°01' W 061°47'0 0.0
2017-Dec-31 01:28N 17°01' W 061°47'0 0.0
2017-Dec-31 00:58N 17°01' W 061°47'0 0.0
2017-Dec-31 00:28N 17°01' W 061°47'0 0.0
2017-Dec-30 23:58N 17°01' W 061°47'0 0.0
2017-Dec-30 23:28N 17°01' W 061°47'0 0.0
2017-Dec-30 22:58N 17°01' W 061°47'0 0.0
2017-Dec-30 22:28N 17°01' W 061°47'0 0.0
2017-Dec-30 21:58N 17°01' W 061°47'0 0.0
2017-Dec-30 21:28N 17°01' W 061°47'0 0.0
2017-Dec-30 20:58N 17°01' W 061°47'0 0.0
2017-Dec-30 20:28N 17°01' W 061°47'0 0.0
2017-Dec-30 19:58N 17°01' W 061°47'0 0.0
2017-Dec-30 19:25N 17°01' W 061°47'0 0.0
2017-Dec-30 18:58N 17°01' W 061°47'0 0.0
2017-Dec-30 18:28N 17°01' W 061°47'0 0.0
2017-Dec-30 17:58N 17°01' W 061°47'0 0.0
2017-Dec-30 17:28N 17°01' W 061°47'0 0.0
2017-Dec-30 16:58N 17°01' W 061°47'0 0.0
2017-Dec-30 16:28N 17°01' W 061°47'0 0.0
2017-Dec-30 15:58N 17°01' W 061°47'0 0.0
2017-Dec-30 15:28N 17°01' W 061°47'0 0.0
2017-Dec-30 14:58N 17°01' W 061°47'0 0.0
2017-Dec-30 14:28N 17°01' W 061°47'0 0.0
2017-Dec-30 13:58N 17°01' W 061°47'0 0.0
2017-Dec-30 13:28N 17°01' W 061°47'0 0.0
2017-Dec-30 12:58N 17°01' W 061°47'0 0.0
2017-Dec-30 12:28N 17°01' W 061°47'0 0.0
2017-Dec-30 11:58N 17°01' W 061°47'0 0.0
2017-Dec-30 11:28N 17°01' W 061°47'0 0.0
2017-Dec-30 10:58N 17°01' W 061°47'0 0.0
2017-Dec-30 10:28N 17°01' W 061°47'0 0.0
2017-Dec-30 09:58N 17°01' W 061°47'0 0.0
2017-Dec-30 09:28N 17°01' W 061°47'0 0.0
2017-Dec-30 08:58N 17°01' W 061°47'0 0.0
2017-Dec-30 08:28N 17°01' W 061°47'0 0.0
2017-Dec-30 07:58N 17°01' W 061°47'0 0.0
2017-Dec-30 07:28N 17°01' W 061°47'0 0.0
2017-Dec-30 06:58N 17°01' W 061°47'0 0.0
2017-Dec-30 06:28N 17°01' W 061°47'0 0.0
2017-Dec-30 05:58N 17°01' W 061°47'0 0.0
2017-Dec-30 05:28N 17°01' W 061°47'0 0.0
2017-Dec-30 04:58N 17°01' W 061°47'0 0.0
2017-Dec-30 04:28N 17°01' W 061°47'0 0.0
2017-Dec-30 03:58N 17°01' W 061°47'0 0.0
2017-Dec-30 03:28N 17°01' W 061°47'0 0.0
2017-Dec-30 03:01N 17°01' W 061°47'0 0.0
2017-Dec-30 02:31N 17°01' W 061°47'0 0.0
2017-Dec-30 01:58N 17°01' W 061°47'0 0.0
2017-Dec-30 01:31N 17°01' W 061°47'0 0.0
2017-Dec-30 01:01N 17°01' W 061°47'0 0.0
2017-Dec-30 00:28N 17°01' W 061°47'0 0.0
2017-Dec-30 00:01N 17°01' W 061°47'0 0.0
2017-Dec-29 23:31N 17°01' W 061°47'0 0.0
2017-Dec-29 22:58N 17°01' W 061°47'0 0.0
2017-Dec-29 22:28N 17°01' W 061°47'0 0.0
2017-Dec-29 22:01N 17°01' W 061°47'0 0.0
2017-Dec-29 21:31N 17°01' W 061°47'0 0.0
2017-Dec-29 21:01N 17°01' W 061°47'0 0.0
2017-Dec-29 20:28N 17°01' W 061°47'0 0.0
2017-Dec-29 20:00N 17°01' W 061°47'0 0.0
2017-Dec-29 19:28N 17°01' W 061°47'0 0.0
2017-Dec-29 18:58N 17°01' W 061°47'0 0.0
2017-Dec-29 18:27N 17°01' W 061°47'0 0.0
2017-Dec-29 18:01N 17°01' W 061°47'0 0.0
2017-Dec-29 17:28N 17°01' W 061°47'0 0.0
2017-Dec-29 16:57N 17°01' W 061°47'0 0.0
2017-Dec-29 16:28N 17°01' W 061°47'0 0.0
2017-Dec-29 16:01N 17°01' W 061°47'0 0.0
2017-Dec-29 15:30N 17°01' W 061°47'0 0.0
2017-Dec-29 15:00N 17°01' W 061°47'0 0.0
2017-Dec-29 14:28N 17°01' W 061°47'0 0.0
2017-Dec-29 14:00N 17°01' W 061°47'0 0.0
2017-Dec-29 13:30N 17°01' W 061°47'0 0.0
2017-Dec-29 12:58N 17°01' W 061°47'0 0.0
2017-Dec-29 12:31N 17°01' W 061°47'0 0.0
2017-Dec-29 11:57N 17°01' W 061°47'0 0.0
2017-Dec-29 11:30N 17°01' W 061°47'0 0.0
2017-Dec-29 11:00N 17°01' W 061°47'0 0.0
2017-Dec-29 10:27N 17°01' W 061°47'0 0.0
2017-Dec-29 10:00N 17°01' W 061°47'0 0.0
2017-Dec-29 09:30N 17°01' W 061°47'0 0.0
2017-Dec-29 09:01N 17°01' W 061°47'0 0.0
2017-Dec-29 08:30N 17°01' W 061°47'0 0.0
2017-Dec-29 08:00N 17°01' W 061°47'0 0.0
2017-Dec-29 07:27N 17°01' W 061°47'0 0.0
2017-Dec-29 07:00N 17°01' W 061°47'0 0.0
2017-Dec-29 06:30N 17°01' W 061°47'0 0.0
2017-Dec-29 06:00N 17°01' W 061°47'0 0.0
2017-Dec-29 05:30N 17°01' W 061°47'0 0.0
2017-Dec-29 05:01N 17°01' W 061°47'0 0.0
2017-Dec-29 04:30N 17°01' W 061°47'0 0.0
2017-Dec-29 04:00N 17°01' W 061°47'0 0.0
2017-Dec-29 03:30N 17°01' W 061°47'0 0.0
2017-Dec-29 03:00N 17°01' W 061°47'0 0.0
2017-Dec-29 02:31N 17°01' W 061°47'0 0.0
2017-Dec-29 02:00N 17°01' W 061°47'0 0.0
2017-Dec-29 01:30N 17°01' W 061°47'0 0.0
2017-Dec-29 01:00N 17°01' W 061°47'0 0.0
2017-Dec-29 00:30N 17°01' W 061°47'0 0.0
2017-Dec-29 00:00N 17°01' W 061°47'0 0.0
2017-Dec-28 23:30N 17°01' W 061°47'0 0.0
2017-Dec-28 23:00N 17°01' W 061°47'0 0.0
2017-Dec-28 22:30N 17°01' W 061°47'0 0.0
2017-Dec-28 22:00N 17°01' W 061°47'0 0.0
2017-Dec-28 21:30N 17°01' W 061°47'  

Dump ship's entire track history